createdAt,value
2022-12-01T00:02:05.792Z,93.48
2022-12-01T00:04:32.385Z,93.26
2022-12-01T00:06:58.933Z,93.49
2022-12-01T00:09:44.067Z,93.20
2022-12-01T00:12:10.390Z,93.33
2022-12-01T00:14:36.688Z,93.46
2022-12-01T00:17:04.835Z,93.45
2022-12-01T00:19:31.210Z,93.42
2022-12-01T00:21:57.565Z,93.43
2022-12-01T00:24:24.487Z,93.43
2022-12-01T00:26:50.854Z,93.35
2022-12-01T00:29:17.166Z,93.42
2022-12-01T00:31:43.500Z,93.30
2022-12-01T00:34:22.617Z,93.39
2022-12-01T00:36:49.387Z,93.22
2022-12-01T00:39:15.750Z,93.28
2022-12-01T00:41:42.116Z,93.33
2022-12-01T00:44:08.435Z,93.27
2022-12-01T00:46:34.792Z,93.35
2022-12-01T00:49:01.274Z,93.11
2022-12-01T00:51:27.603Z,93.02
2022-12-01T00:53:53.922Z,93.01
2022-12-01T00:56:21.166Z,93.09
2022-12-01T00:58:47.532Z,93.07
2022-12-01T01:01:14.014Z,93.29
2022-12-01T01:03:40.420Z,93.06
2022-12-01T01:06:10.271Z,93.04
2022-12-01T01:08:36.911Z,92.93
2022-12-01T01:11:04.157Z,93.17
2022-12-01T01:13:30.570Z,92.87
2022-12-01T01:16:06.393Z,92.96
2022-12-01T01:18:33.020Z,92.89
2022-12-01T01:21:07.897Z,92.78
2022-12-01T01:23:34.695Z,92.71
2022-12-01T01:26:02.953Z,92.72
2022-12-01T01:28:31.195Z,92.85
2022-12-01T01:30:58.064Z,92.67
2022-12-01T01:33:24.887Z,92.73
2022-12-01T01:35:53.074Z,92.44
2022-12-01T01:38:19.426Z,92.47
2022-12-01T01:40:46.623Z,92.51
2022-12-01T01:43:16.493Z,92.46
2022-12-01T01:45:43.211Z,92.52
2022-12-01T01:48:12.996Z,92.34
2022-12-01T01:50:39.810Z,92.58
2022-12-01T01:53:10.636Z,92.57
2022-12-01T01:55:37.790Z,92.49
2022-12-01T01:58:08.295Z,92.33
2022-12-01T02:00:35.903Z,92.63
2022-12-01T02:03:03.151Z,92.40
2022-12-01T02:05:32.521Z,92.55
2022-12-01T02:08:00.338Z,92.52
2022-12-01T02:11:04.319Z,92.30
2022-12-01T02:13:48.053Z,92.29
2022-12-01T02:16:24.515Z,92.54
2022-12-01T02:19:12.675Z,92.34
2022-12-01T02:21:51.070Z,92.29
2022-12-01T02:24:34.421Z,92.22
2022-12-01T02:27:28.374Z,92.20
2022-12-01T02:30:17.038Z,92.18
2022-12-01T02:32:54.947Z,92.30
2022-12-01T02:35:32.370Z,92.32
2022-12-01T02:38:28.745Z,92.19
2022-12-01T02:41:23.287Z,92.18
2022-12-01T02:44:03.349Z,92.09
2022-12-01T02:46:37.380Z,92.03
2022-12-01T02:49:10.049Z,92.05
2022-12-01T02:51:39.927Z,92.09
2022-12-01T02:54:07.070Z,91.99
2022-12-01T02:56:33.410Z,91.99
2022-12-01T02:58:59.786Z,92.06
2022-12-01T03:01:50.507Z,92.08
2022-12-01T03:04:29.841Z,92.10
2022-12-01T03:07:12.783Z,92.10
2022-12-01T03:09:52.808Z,92.16
2022-12-01T03:12:43.614Z,91.93
2022-12-01T03:15:25.023Z,92.11
2022-12-01T03:18:22.998Z,92.12
2022-12-01T03:20:59.326Z,92.12
2022-12-01T03:23:31.247Z,91.85
2022-12-01T03:26:01.751Z,91.90
2022-12-01T03:28:33.023Z,92.07
2022-12-01T03:31:07.919Z,92.26
2022-12-01T03:33:43.767Z,92.04
2022-12-01T03:36:19.438Z,92.13
2022-12-01T03:38:51.239Z,91.96
2022-12-01T03:41:22.622Z,92.15
2022-12-01T03:43:56.274Z,92.05
2022-12-01T03:46:41.003Z,92.17
2022-12-01T03:49:09.607Z,92.00
2022-12-01T03:52:06.938Z,92.13
2022-12-01T03:55:04.814Z,91.99
2022-12-01T03:57:55.526Z,92.00
2022-12-01T04:00:22.110Z,92.06
2022-12-01T04:02:48.923Z,92.01
2022-12-01T04:05:15.496Z,92.30
2022-12-01T04:07:41.888Z,91.93
2022-12-01T04:10:08.776Z,91.78
2022-12-01T04:12:35.116Z,91.92
2022-12-01T04:15:11.054Z,91.97
2022-12-01T04:17:37.568Z,91.91
2022-12-01T04:20:06.917Z,91.89
2022-12-01T04:22:33.891Z,92.04
2022-12-01T04:25:00.398Z,92.14
2022-12-01T04:27:26.714Z,92.08
2022-12-01T04:29:53.047Z,92.16
2022-12-01T04:32:19.478Z,92.00
2022-12-01T04:34:45.789Z,91.98
2022-12-01T04:37:12.516Z,92.03
2022-12-01T04:39:38.939Z,91.99
2022-12-01T04:42:05.504Z,92.14
2022-12-01T04:44:35.053Z,92.17
2022-12-01T04:47:02.592Z,92.34
2022-12-01T04:49:28.993Z,92.32
2022-12-01T04:51:55.532Z,92.25
2022-12-01T04:54:22.239Z,92.29
2022-12-01T04:56:48.695Z,92.14
2022-12-01T04:59:15.304Z,92.25
2022-12-01T05:01:41.744Z,92.19
2022-12-01T05:04:12.178Z,92.17
2022-12-01T05:06:38.558Z,92.10
2022-12-01T05:09:05.259Z,92.15
2022-12-01T05:11:32.538Z,92.30
2022-12-01T05:13:59.546Z,92.42
2022-12-01T05:16:29.889Z,92.38
2022-12-01T05:19:17.163Z,92.30
2022-12-01T05:21:45.382Z,92.32
2022-12-01T05:24:13.184Z,92.28
2022-12-01T05:26:40.358Z,92.28
2022-12-01T05:29:06.952Z,92.20
2022-12-01T05:31:33.338Z,92.03
2022-12-01T05:33:59.917Z,92.17
2022-12-01T05:36:26.367Z,91.91
2022-12-01T05:38:52.780Z,91.81
2022-12-01T05:41:19.259Z,91.90
2022-12-01T05:43:45.849Z,92.10
2022-12-01T05:46:12.321Z,92.13
2022-12-01T05:48:38.746Z,92.19
2022-12-01T05:51:13.503Z,92.42
2022-12-01T05:53:40.210Z,92.50
2022-12-01T05:56:08.223Z,92.50
2022-12-01T05:58:35.536Z,92.74
2022-12-01T06:01:02.244Z,92.66
2022-12-01T06:03:28.574Z,92.64
2022-12-01T06:05:54.977Z,92.58
2022-12-01T06:08:21.443Z,92.55
2022-12-01T06:10:48.029Z,92.55
2022-12-01T06:13:14.646Z,92.42
2022-12-01T06:15:41.086Z,92.28
2022-12-01T06:18:07.626Z,92.11
2022-12-01T06:20:33.954Z,92.25
2022-12-01T06:23:00.374Z,91.82
2022-12-01T06:25:26.739Z,92.06
2022-12-01T06:27:58.108Z,91.83
2022-12-01T06:30:25.507Z,91.83
2022-12-01T06:32:51.859Z,91.58
2022-12-01T06:35:18.326Z,91.64
2022-12-01T06:37:44.711Z,91.43
2022-12-01T06:40:11.642Z,91.44
2022-12-01T06:42:37.989Z,91.39
2022-12-01T06:45:05.485Z,91.39
2022-12-01T06:47:31.843Z,91.26
2022-12-01T06:49:58.177Z,91.54
2022-12-01T06:52:24.557Z,91.29
2022-12-01T06:54:50.909Z,91.40
2022-12-01T06:57:17.742Z,91.21
2022-12-01T06:59:44.510Z,91.38
2022-12-01T07:02:11.737Z,91.43
2022-12-01T07:04:38.149Z,91.50
2022-12-01T07:07:07.786Z,91.30
2022-12-01T07:09:34.530Z,91.47
2022-12-01T07:12:00.880Z,91.69
2022-12-01T07:14:27.865Z,91.86
2022-12-01T07:16:56.472Z,92.11
2022-12-01T07:19:25.240Z,92.04
2022-12-01T07:21:51.682Z,92.05
2022-12-01T07:24:18.026Z,92.09
2022-12-01T07:26:44.356Z,92.08
2022-12-01T07:29:10.970Z,91.73
2022-12-01T07:31:38.386Z,91.94
2022-12-01T07:34:05.666Z,92.11
2022-12-01T07:36:32.066Z,91.96
2022-12-01T07:38:58.469Z,92.11
2022-12-01T07:41:24.942Z,92.05
2022-12-01T07:43:51.300Z,91.98
2022-12-01T07:46:24.557Z,92.09
2022-12-01T07:48:55.522Z,92.21
2022-12-01T07:51:24.591Z,92.45
2022-12-01T07:53:52.071Z,92.39
2022-12-01T07:56:20.337Z,92.24
2022-12-01T07:58:47.192Z,93.05
2022-12-01T08:01:16.616Z,92.87
2022-12-01T08:03:44.053Z,93.13
2022-12-01T08:06:11.307Z,93.53
2022-12-01T08:13:42.140Z,93.74
2022-12-01T08:16:11.593Z,93.89
2022-12-01T08:18:39.648Z,93.98
2022-12-01T08:21:07.688Z,93.95
2022-12-01T08:23:34.280Z,93.99
2022-12-01T08:26:06.647Z,94.35
2022-12-01T08:28:36.050Z,94.23
2022-12-01T08:31:17.758Z,94.25
2022-12-01T08:33:44.918Z,94.40
2022-12-01T08:36:11.278Z,94.37
2022-12-01T08:38:38.060Z,94.39
2022-12-01T08:41:07.375Z,94.54
2022-12-01T08:43:56.563Z,94.48
2022-12-01T08:46:22.184Z,94.28
2022-12-01T08:48:48.594Z,94.29
2022-12-01T08:51:18.253Z,94.36
2022-12-01T08:53:48.633Z,94.34
2022-12-01T08:56:21.321Z,94.31
2022-12-01T08:58:48.184Z,94.13
2022-12-01T09:01:16.229Z,94.37
2022-12-01T09:03:43.704Z,94.13
2022-12-01T09:06:13.325Z,94.08
2022-12-01T09:08:41.170Z,94.03
2022-12-01T09:11:11.378Z,93.86
2022-12-01T09:13:39.463Z,93.86
2022-12-01T09:16:10.170Z,93.51
2022-12-01T09:18:36.619Z,93.44
2022-12-01T09:21:21.667Z,93.46
2022-12-01T09:23:48.730Z,93.36
2022-12-01T09:26:19.009Z,93.26
2022-12-01T09:28:52.410Z,92.77
2022-12-01T09:31:20.562Z,92.71
2022-12-01T09:33:47.038Z,92.63
2022-12-01T09:36:13.639Z,92.71
2022-12-01T09:38:40.398Z,92.36
2022-12-01T09:41:30.637Z,92.29
2022-12-01T09:44:05.547Z,92.21
2022-12-01T09:46:37.777Z,92.07
2022-12-01T09:49:12.493Z,91.61
2022-12-01T09:51:38.942Z,91.19
2022-12-01T09:54:06.988Z,90.90
2022-12-01T09:56:42.770Z,90.69
2022-12-01T09:59:17.926Z,90.53
2022-12-01T10:01:48.119Z,90.42
2022-12-01T10:04:24.893Z,89.93
2022-12-01T10:07:06.175Z,89.78
2022-12-01T10:09:35.493Z,89.42
2022-12-01T10:12:11.086Z,89.28
2022-12-01T10:14:37.899Z,89.29
2022-12-01T10:17:13.311Z,89.32
2022-12-01T10:19:55.171Z,89.16
2022-12-01T10:22:45.426Z,89.05
2022-12-01T10:25:25.441Z,89.36
2022-12-01T10:28:10.486Z,88.99
2022-12-01T10:30:48.272Z,89.02
2022-12-01T10:33:33.031Z,89.29
2022-12-01T10:35:59.446Z,89.29
2022-12-01T10:38:35.781Z,89.58
2022-12-01T10:41:05.439Z,88.82
2022-12-01T10:43:37.718Z,88.50
2022-12-01T10:46:19.194Z,88.04
2022-12-01T10:49:11.281Z,88.02
2022-12-01T10:51:55.633Z,87.92
2022-12-01T10:54:35.897Z,87.81
2022-12-01T10:57:04.004Z,87.63
2022-12-01T10:59:35.703Z,87.70
2022-12-01T11:02:03.766Z,87.52
2022-12-01T11:04:45.136Z,87.20
2022-12-01T11:07:18.268Z,87.02
2022-12-01T11:09:47.117Z,87.10
2022-12-01T11:12:20.029Z,87.36
2022-12-01T11:14:55.494Z,86.99
2022-12-01T11:17:32.887Z,86.95
2022-12-01T11:20:16.722Z,86.54
2022-12-01T11:22:43.143Z,86.43
2022-12-01T11:25:22.610Z,85.76
2022-12-01T11:27:57.431Z,85.60
2022-12-01T11:30:26.490Z,85.29
2022-12-01T11:32:56.396Z,85.01
2022-12-01T11:35:26.206Z,84.79
2022-12-01T11:38:27.892Z,84.30
2022-12-01T11:41:00.365Z,84.42
2022-12-01T11:43:30.244Z,84.10
2022-12-01T11:45:59.747Z,84.21
2022-12-01T11:48:28.897Z,83.80
2022-12-01T11:51:04.342Z,83.85
2022-12-01T11:53:32.291Z,82.78
2022-12-01T11:56:35.513Z,82.98
2022-12-01T11:59:06.731Z,83.45
2022-12-01T12:01:57.806Z,83.07
2022-12-01T12:04:52.862Z,82.74
2022-12-01T12:07:56.808Z,82.70
2022-12-01T12:10:51.191Z,82.95
2022-12-01T12:13:42.103Z,82.88
2022-12-01T12:16:38.209Z,82.13
2022-12-01T12:19:34.115Z,82.33
2022-12-01T12:22:11.478Z,81.38
2022-12-01T12:25:02.555Z,81.79
2022-12-01T12:27:50.241Z,80.11
2022-12-01T12:30:29.902Z,81.14
2022-12-01T12:33:19.823Z,81.14
2022-12-01T12:36:14.268Z,80.46
2022-12-01T12:39:16.464Z,80.72
2022-12-01T12:41:50.634Z,81.08
2022-12-01T12:44:38.503Z,80.77
2022-12-01T12:47:36.337Z,80.72
2022-12-01T12:50:36.754Z,80.84
2022-12-01T12:53:14.063Z,80.46
2022-12-01T12:55:46.353Z,80.72
2022-12-01T12:58:23.692Z,80.45
2022-12-01T13:01:01.359Z,80.66
2022-12-01T13:04:05.358Z,80.68
2022-12-01T13:06:43.403Z,80.25
2022-12-01T13:09:13.175Z,79.80
2022-12-01T13:11:56.809Z,79.85
2022-12-01T13:14:28.718Z,80.28
2022-12-01T13:17:02.719Z,80.53
2022-12-01T13:19:33.455Z,80.43
2022-12-01T13:22:01.488Z,80.17
2022-12-01T13:24:35.656Z,80.29
2022-12-01T13:27:15.558Z,80.34
2022-12-01T13:29:47.772Z,80.61
2022-12-01T13:32:26.556Z,80.63
2022-12-01T13:34:53.541Z,80.55
2022-12-01T13:37:45.902Z,80.85
2022-12-01T13:40:23.601Z,80.90
2022-12-01T13:43:04.204Z,80.62
2022-12-01T13:48:48.741Z,81.07
2022-12-01T13:51:15.414Z,81.25
2022-12-01T13:54:03.524Z,81.39
2022-12-01T13:56:43.857Z,81.06
2022-12-01T14:00:03.232Z,81.26
2022-12-01T14:02:32.047Z,80.96
2022-12-01T14:05:40.798Z,80.99
2022-12-01T14:08:28.245Z,81.20
2022-12-01T14:11:00.676Z,80.95
2022-12-01T14:13:28.807Z,81.48
2022-12-01T14:16:06.709Z,81.08
2022-12-01T14:18:43.217Z,81.31
2022-12-01T14:21:12.590Z,81.57
2022-12-01T14:24:01.663Z,81.40
2022-12-01T14:26:30.725Z,81.40
2022-12-01T14:29:00.041Z,81.34
2022-12-01T14:31:32.128Z,81.37
2022-12-01T14:34:24.398Z,81.60
2022-12-01T14:37:02.879Z,81.72
2022-12-01T14:39:35.967Z,81.78
2022-12-01T14:42:11.181Z,81.85
2022-12-01T14:44:48.941Z,81.78
2022-12-01T14:47:22.475Z,81.62
2022-12-01T14:50:01.558Z,81.96
2022-12-01T14:52:27.839Z,82.20
2022-12-01T14:54:57.881Z,82.16
2022-12-01T14:57:47.575Z,82.61
2022-12-01T15:00:23.086Z,82.72
2022-12-01T15:02:59.802Z,82.82
2022-12-01T15:05:28.821Z,82.73
2022-12-01T15:08:33.233Z,83.01
2022-12-01T15:10:54.880Z,83.17
2022-12-01T15:13:30.527Z,83.34
2022-12-01T15:15:59.474Z,83.76
2022-12-01T15:18:34.679Z,83.64
2022-12-01T15:21:13.685Z,83.93
2022-12-01T15:23:55.488Z,83.92
2022-12-01T15:26:24.464Z,84.21
2022-12-01T15:29:04.556Z,84.32
2022-12-01T15:31:34.920Z,84.35
2022-12-01T15:34:01.947Z,84.74
2022-12-01T15:36:28.522Z,84.71
2022-12-01T15:38:55.416Z,85.02
2022-12-01T15:41:30.986Z,85.17
2022-12-01T15:44:01.861Z,85.29
2022-12-01T15:46:34.456Z,85.31
2022-12-01T15:49:08.385Z,85.43
2022-12-01T15:51:35.046Z,85.50
2022-12-01T15:54:02.509Z,85.51
2022-12-01T15:56:33.208Z,85.73
2022-12-01T15:59:16.717Z,85.68
2022-12-01T16:01:44.266Z,85.82
2022-12-01T16:04:18.791Z,85.79
2022-12-01T16:07:03.643Z,85.85
2022-12-01T16:09:37.401Z,86.18
2022-12-01T16:12:13.072Z,86.39
2022-12-01T16:14:49.759Z,86.37
2022-12-01T16:17:17.097Z,86.37
2022-12-01T16:19:45.362Z,86.54
2022-12-01T16:22:11.614Z,86.42
2022-12-01T16:24:45.669Z,86.75
2022-12-01T16:27:31.638Z,86.58
2022-12-01T16:30:01.959Z,86.61
2022-12-01T16:32:40.438Z,86.71
2022-12-01T16:35:27.600Z,86.66
2022-12-01T16:37:54.814Z,87.05
2022-12-01T16:40:24.138Z,86.81
2022-12-01T16:42:50.628Z,86.70
2022-12-01T16:45:18.804Z,86.61
2022-12-01T16:47:47.720Z,86.79
2022-12-01T16:50:19.075Z,86.92
2022-12-01T16:52:46.081Z,86.92
2022-12-01T16:55:24.800Z,87.07
2022-12-01T16:57:51.190Z,87.23
2022-12-01T17:00:17.854Z,87.33
2022-12-01T17:02:44.350Z,87.22
2022-12-01T17:05:11.702Z,87.28
2022-12-01T17:07:38.065Z,87.12
2022-12-01T17:10:05.460Z,87.49
2022-12-01T17:12:31.818Z,87.33
2022-12-01T17:14:58.186Z,87.52
2022-12-01T17:17:24.551Z,87.35
2022-12-01T17:19:54.212Z,87.68
2022-12-01T17:22:21.046Z,87.42
2022-12-01T17:24:47.641Z,87.37
2022-12-01T17:27:14.137Z,87.38
2022-12-01T17:29:45.652Z,87.40
2022-12-01T17:32:13.808Z,87.60
2022-12-01T17:34:40.204Z,87.60
2022-12-01T17:37:06.982Z,88.06
2022-12-01T17:39:33.596Z,88.05
2022-12-01T17:42:00.130Z,88.14
2022-12-01T17:44:26.710Z,88.12
2022-12-01T17:46:53.091Z,88.04
2022-12-01T17:49:19.539Z,87.92
2022-12-01T17:51:45.910Z,87.77
2022-12-01T17:54:12.441Z,88.00
2022-12-01T17:56:38.925Z,88.33
2022-12-01T17:59:05.376Z,87.93
2022-12-01T18:01:31.997Z,88.09
2022-12-01T18:03:58.904Z,88.04
2022-12-01T18:06:26.682Z,88.04
2022-12-01T18:08:53.550Z,87.86
2022-12-01T18:11:20.547Z,88.19
2022-12-01T18:13:49.291Z,88.10
2022-12-01T18:16:21.275Z,88.11
2022-12-01T18:18:48.227Z,88.08
2022-12-01T18:21:16.703Z,88.10
2022-12-01T18:23:51.285Z,88.21
2022-12-01T18:26:19.003Z,88.31
2022-12-01T18:28:45.561Z,88.23
2022-12-01T18:31:14.802Z,87.98
2022-12-01T18:33:42.987Z,88.21
2022-12-01T18:36:12.851Z,88.17
2022-12-01T18:38:39.657Z,88.17
2022-12-01T18:41:06.039Z,88.21
2022-12-01T18:43:32.605Z,88.41
2022-12-01T18:45:59.719Z,88.03
2022-12-01T18:48:26.812Z,88.39
2022-12-01T18:50:59.090Z,88.40
2022-12-01T18:53:25.837Z,88.43
2022-12-01T18:55:52.151Z,88.47
2022-12-01T18:58:18.479Z,88.89
2022-12-01T19:00:44.958Z,89.10
2022-12-01T19:03:11.496Z,89.06
2022-12-01T19:05:38.855Z,88.66
2022-12-01T19:08:06.400Z,88.61
2022-12-01T19:10:34.964Z,88.55
2022-12-01T19:13:01.355Z,88.42
2022-12-01T19:15:27.732Z,88.31
2022-12-01T19:17:54.917Z,88.61
2022-12-01T19:20:21.306Z,88.64
2022-12-01T19:22:47.974Z,88.96
2022-12-01T19:25:14.558Z,89.16
2022-12-01T19:27:41.232Z,89.27
2022-12-01T19:30:08.081Z,89.65
2022-12-01T19:32:34.566Z,89.84
2022-12-01T19:35:00.862Z,89.92
2022-12-01T19:37:27.268Z,90.29
2022-12-01T19:39:53.590Z,90.06
2022-12-01T19:42:19.954Z,90.31
2022-12-01T19:44:46.435Z,90.47
2022-12-01T19:47:13.974Z,90.49
2022-12-01T19:49:42.881Z,90.76
2022-12-01T19:52:09.225Z,90.92
2022-12-01T19:54:37.548Z,90.96
2022-12-01T19:57:03.988Z,91.16
2022-12-01T19:59:30.326Z,91.25
2022-12-01T20:02:02.207Z,91.24
2022-12-01T20:04:30.660Z,91.19
2022-12-01T20:06:57.099Z,91.26
2022-12-01T20:09:23.480Z,91.38
2022-12-01T20:11:49.914Z,91.21
2022-12-01T20:14:16.311Z,91.31
2022-12-01T20:16:42.708Z,91.55
2022-12-01T20:19:10.446Z,91.75
2022-12-01T20:21:44.861Z,91.29
2022-12-01T20:24:13.958Z,91.25
2022-12-01T20:26:46.685Z,91.27
2022-12-01T20:29:16.639Z,91.44
2022-12-01T20:31:45.335Z,91.46
2022-12-01T20:34:18.227Z,91.57
2022-12-01T20:36:44.849Z,91.63
2022-12-01T20:39:12.138Z,92.08
2022-12-01T20:41:40.176Z,92.17
2022-12-01T20:44:07.995Z,92.51
2022-12-01T20:46:36.489Z,92.37
2022-12-01T20:49:04.691Z,92.64
2022-12-01T20:51:34.003Z,92.38
2022-12-01T20:56:48.596Z,92.49
2022-12-01T20:59:14.970Z,92.52
2022-12-01T21:01:41.439Z,92.82
2022-12-01T21:04:10.751Z,92.85
2022-12-01T21:06:37.154Z,92.86
2022-12-01T21:09:04.564Z,92.89
2022-12-01T21:11:54.939Z,92.82
2022-12-01T21:14:28.111Z,92.59
2022-12-01T21:16:58.892Z,92.90
2022-12-01T21:20:05.265Z,92.85
2022-12-01T21:22:31.802Z,92.90
2022-12-01T21:25:15.668Z,92.78
2022-12-01T21:27:42.238Z,92.99
2022-12-01T21:30:21.784Z,93.10
2022-12-01T21:32:49.661Z,93.02
2022-12-01T21:35:24.779Z,93.04
2022-12-01T21:37:58.009Z,92.96
2022-12-01T21:40:26.807Z,92.86
2022-12-01T21:42:53.278Z,92.89
2022-12-01T21:45:29.309Z,92.76
2022-12-01T21:48:00.534Z,92.92
2022-12-01T21:50:27.312Z,93.03
2022-12-01T21:52:53.778Z,93.09
2022-12-01T21:55:20.010Z,93.36
2022-12-01T21:57:53.164Z,92.97
2022-12-01T22:00:30.310Z,93.08
2022-12-01T22:03:08.898Z,93.00
2022-12-01T22:05:40.402Z,93.22
2022-12-01T22:08:29.108Z,93.01
2022-12-01T22:11:15.998Z,93.13
2022-12-01T22:13:49.574Z,93.00
2022-12-01T22:16:28.326Z,93.02
2022-12-01T22:19:00.977Z,92.97
2022-12-01T22:21:31.859Z,93.24
2022-12-01T22:24:04.591Z,93.04
2022-12-01T22:26:31.866Z,93.05
2022-12-01T22:28:59.741Z,92.97
2022-12-01T22:31:27.771Z,92.85
2022-12-01T22:34:03.387Z,93.02
2022-12-01T22:36:33.481Z,92.71
2022-12-01T22:39:00.603Z,92.86
2022-12-01T22:41:28.662Z,92.94
2022-12-01T22:44:00.462Z,93.04
2022-12-01T22:46:34.003Z,92.94
2022-12-01T22:49:23.970Z,92.92
2022-12-01T22:52:01.234Z,92.61
2022-12-01T22:54:32.084Z,92.91
2022-12-01T22:57:07.602Z,92.76
2022-12-01T22:59:36.618Z,92.63
2022-12-01T23:02:24.877Z,92.37
2022-12-01T23:04:59.557Z,92.10
2022-12-01T23:07:30.319Z,91.82
2022-12-01T23:10:02.219Z,92.07
2022-12-01T23:12:31.459Z,91.59
2022-12-01T23:15:07.381Z,91.83
2022-12-01T23:17:35.611Z,91.73
2022-12-01T23:20:21.774Z,91.68
2022-12-01T23:22:49.823Z,91.73
2022-12-01T23:25:19.428Z,91.59
2022-12-01T23:27:50.765Z,91.70
2022-12-01T23:30:20.471Z,91.74
2022-12-01T23:33:00.810Z,91.78
2022-12-01T23:35:27.281Z,91.64
2022-12-01T23:37:54.114Z,91.73
2022-12-01T23:40:30.935Z,91.68
2022-12-01T23:43:18.488Z,91.98
2022-12-01T23:45:51.395Z,91.82
2022-12-01T23:48:25.099Z,92.04
2022-12-01T23:50:54.239Z,91.87
2022-12-01T23:53:32.253Z,91.71
2022-12-01T23:56:07.148Z,92.11
2022-12-01T23:58:34.169Z,92.01
